Ice Star — OUJK2 — position and weather

sailwx.info

Track history (hours):
 
Tides and Currents Weather Stations Pressure Air Temp Water Temp Dewpoint Dewpoint Depression Visibility Wind Speed Wind Dir Waves Ship Positions

Ice Star

Last reported at 2016-Jun-17 19:32 UTC. Time now 2016-Jul-01 02:45 UTC.
Position N 31°24' E 032°19'.
Warning: this ship's position is 13 days out of date.

Length 367 m; draft 12.8 m.

Type: Ship (hazmat cat A). MMSI: 220596000.

Date/timePositionNaut miles runAvg speedWind from/ knotsBaromVisibWave heightAir tempDewpointWater temp
2016-Jun-17 19:32N 31°24' E 032°19'0 0.0
2016-Jun-17 15:09N 31°24' E 032°20'3 5.8
2016-Jun-17 14:33N 31°26' E 032°23'9 8.6
2016-Jun-17 13:33N 31°18' E 032°22'6 6.0
2016-Jun-17 12:33N 31°12' E 032°21'14 0.8
2016-Jun-16 19:21N 31°25' E 032°26'2 1.9
2016-Jun-16 18:33N 31°25' E 032°28'0 0.2
2016-Jun-16 17:33N 31°25' E 032°28'  
2016-Jun-14 09:33N 37°45' E 016°07'2016.7
2016-Jun-14 08:23N 37°53' E 015°44'1214.1
2016-Jun-14 07:33N 38°02' E 015°35'2914.4
2016-Jun-14 05:33N 38°27' E 015°53'2 1.7
2016-Jun-14 04:33N 38°28' E 015°55'0 0.0
2016-Jun-14 03:33N 38°28' E 015°55'0 0.0
2016-Jun-14 02:29N 38°28' E 015°55'0 0.0
2016-Jun-14 01:32N 38°28' E 015°55'0 0.0
2016-Jun-14 00:32N 38°28' E 015°55'0 0.0
2016-Jun-13 23:32N 38°28' E 015°55'0 0.0
2016-Jun-13 22:32N 38°28' E 015°55'0 0.0
2016-Jun-13 21:32N 38°28' E 015°55'0 0.0
2016-Jun-13 20:29N 38°28' E 015°55'0 0.0
2016-Jun-13 19:32N 38°28' E 015°55'0 0.0
2016-Jun-13 18:32N 38°28' E 015°55'0 0.0
2016-Jun-13 17:29N 38°28' E 015°55'0 0.0
2016-Jun-13 16:32N 38°28' E 015°55'0 0.0
2016-Jun-13 15:32N 38°28' E 015°55'0 0.0
2016-Jun-13 14:32N 38°28' E 015°55'0 0.0
2016-Jun-13 13:32N 38°28' E 015°55'0 0.0
2016-Jun-13 12:29N 38°28' E 015°55'0 0.0
2016-Jun-13 11:29N 38°28' E 015°55'0 0.0
2016-Jun-13 10:32N 38°28' E 015°55'0 0.0
2016-Jun-13 09:32N 38°28' E 015°55'0 0.0
2016-Jun-13 08:32N 38°28' E 015°55'0 0.0
2016-Jun-13 07:32N 38°28' E 015°55'0 0.0
2016-Jun-13 06:32N 38°28' E 015°55'0 0.1
2016-Jun-13 04:33N 38°28' E 015°54'3 2.7
2016-Jun-13 03:33N 38°28' E 015°51'5 5.0
2016-Jun-13 02:33N 38°23' E 015°48'8 7.9
2016-Jun-13 01:33N 38°17' E 015°43'1313.3
2016-Jun-13 00:33N 38°05' E 015°36'1211.8
2016-Jun-12 23:33N 37°53' E 015°41'1010.3
2016-Jun-12 22:33N 37°51' E 015°53'  
2016-Jun-09 20:25N 44°53' E 013°19'1414.3
2016-Jun-09 19:25N 45°05' E 013°08'1113.0
2016-Jun-09 18:34N 45°16' E 013°03'37 1.3
2016-Jun-08 13:24N 45°38' E 013°46'0 0.0
2016-Jun-08 11:18N 45°38' E 013°46'0 0.1
2016-Jun-08 07:14N 45°38' E 013°45'3 4.0
2016-Jun-08 06:25N 45°40' E 013°42'0 0.1
2016-Jun-08 05:25N 45°40' E 013°42'0 0.0
2016-Jun-08 02:28N 45°40' E 013°42'0 0.0
2016-Jun-08 01:13N 45°40' E 013°42'0 0.1
2016-Jun-08 00:28N 45°40' E 013°42'0 0.0
2016-Jun-07 23:22N 45°40' E 013°42'0 0.0
2016-Jun-07 22:31N 45°40' E 013°42'0 0.0
2016-Jun-07 21:13N 45°40' E 013°42'  
Track history (hours):
 
Tides and Currents Weather Stations Pressure Air Temp Water Temp Dewpoint Dewpoint Depression Visibility Wind Speed Wind Dir Waves Ship Positions

Ice Star

Last reported at 2016-Jun-17 19:32 UTC. Time now 2016-Jul-01 02:45 UTC.
Position N 31°24' E 032°19'.
Warning: this ship's position is 13 days out of date.

Length 367 m; draft 12.8 m.

Type: Ship (hazmat cat A). MMSI: 220596000.

Date/timePositionNaut miles runAvg speedWind from/ knotsBaromVisibWave heightAir tempDewpointWater temp
2016-Jun-17 19:32N 31°24' E 032°19'0 0.0
2016-Jun-17 15:09N 31°24' E 032°20'3 5.8
2016-Jun-17 14:33N 31°26' E 032°23'9 8.6
2016-Jun-17 13:33N 31°18' E 032°22'6 6.0
2016-Jun-17 12:33N 31°12' E 032°21'14 0.8
2016-Jun-16 19:21N 31°25' E 032°26'2 1.9
2016-Jun-16 18:33N 31°25' E 032°28'0 0.2
2016-Jun-16 17:33N 31°25' E 032°28'  
2016-Jun-14 09:33N 37°45' E 016°07'2016.7
2016-Jun-14 08:23N 37°53' E 015°44'1214.1
2016-Jun-14 07:33N 38°02' E 015°35'2914.4
2016-Jun-14 05:33N 38°27' E 015°53'2 1.7
2016-Jun-14 04:33N 38°28' E 015°55'0 0.0
2016-Jun-14 03:33N 38°28' E 015°55'0 0.0
2016-Jun-14 02:29N 38°28' E 015°55'0 0.0
2016-Jun-14 01:32N 38°28' E 015°55'0 0.0
2016-Jun-14 00:32N 38°28' E 015°55'0 0.0
2016-Jun-13 23:32N 38°28' E 015°55'0 0.0
2016-Jun-13 22:32N 38°28' E 015°55'0 0.0
2016-Jun-13 21:32N 38°28' E 015°55'0 0.0
2016-Jun-13 20:29N 38°28' E 015°55'0 0.0
2016-Jun-13 19:32N 38°28' E 015°55'0 0.0
2016-Jun-13 18:32N 38°28' E 015°55'0 0.0
2016-Jun-13 17:29N 38°28' E 015°55'0 0.0
2016-Jun-13 16:32N 38°28' E 015°55'0 0.0
2016-Jun-13 15:32N 38°28' E 015°55'0 0.0
2016-Jun-13 14:32N 38°28' E 015°55'0 0.0
2016-Jun-13 13:32N 38°28' E 015°55'0 0.0
2016-Jun-13 12:29N 38°28' E 015°55'0 0.0
2016-Jun-13 11:29N 38°28' E 015°55'0 0.0
2016-Jun-13 10:32N 38°28' E 015°55'0 0.0
2016-Jun-13 09:32N 38°28' E 015°55'0 0.0
2016-Jun-13 08:32N 38°28' E 015°55'0 0.0
2016-Jun-13 07:32N 38°28' E 015°55'0 0.0
2016-Jun-13 06:32N 38°28' E 015°55'0 0.1
2016-Jun-13 04:33N 38°28' E 015°54'3 2.7
2016-Jun-13 03:33N 38°28' E 015°51'5 5.0
2016-Jun-13 02:33N 38°23' E 015°48'8 7.9
2016-Jun-13 01:33N 38°17' E 015°43'1313.3
2016-Jun-13 00:33N 38°05' E 015°36'1211.8
2016-Jun-12 23:33N 37°53' E 015°41'1010.3
2016-Jun-12 22:33N 37°51' E 015°53'  
2016-Jun-09 20:25N 44°53' E 013°19'1414.3
2016-Jun-09 19:25N 45°05' E 013°08'1113.0
2016-Jun-09 18:34N 45°16' E 013°03'37 1.3
2016-Jun-08 13:24N 45°38' E 013°46'0 0.0
2016-Jun-08 11:18N 45°38' E 013°46'0 0.1
2016-Jun-08 07:14N 45°38' E 013°45'3 4.0
2016-Jun-08 06:25N 45°40' E 013°42'0 0.1
2016-Jun-08 05:25N 45°40' E 013°42'0 0.0
2016-Jun-08 02:28N 45°40' E 013°42'0 0.0
2016-Jun-08 01:13N 45°40' E 013°42'0 0.1
2016-Jun-08 00:28N 45°40' E 013°42'0 0.0
2016-Jun-07 23:22N 45°40' E 013°42'0 0.0
2016-Jun-07 22:31N 45°40' E 013°42'0 0.0
2016-Jun-07 21:13N 45°40' E 013°42'  

Dump ship's entire track history